Time;durP1;ratioP1;P1;durP2;ratioP2;P2;SDS_P1;SDS_P2;PMS_P1;PMS_P2;Temp;Humidity;BMP_temperature;BMP_pressure;BME280_temperature;BME280_humidity;BME280_pressure;Samples;Min_cycle;Max_cycle;Signal;HPM_P1;HPM_P2
2022/03/23 00:00:33;;;;;;;49.18;29.70;;;;;;;6.56;48.95;100854.77;1717707;83;21047;-66
2022/03/23 00:03:00;;;;;;;49.50;30.80;;;;;;;6.54;48.97;100855.36;1717701;83;21255;-66
2022/03/23 00:05:28;;;;;;;59.65;32.13;;;;;;;6.51;49.09;100851.62;1702927;83;20986;-65
2022/03/23 00:08:03;;;;;;;48.80;29.15;;;;;;;6.52;49.13;100848.84;1717763;83;21061;-71
2022/03/23 00:10:32;;;;;;;56.92;31.70;;;;;;;6.52;49.36;100847.53;1717914;83;21002;-66
2022/03/23 00:13:07;;;;;;;51.55;30.82;;;;;;;6.54;49.43;100850.08;1717871;83;21003;-66
2022/03/23 00:15:35;;;;;;;47.05;29.75;;;;;;;6.53;49.37;100852.34;1717630;83;21705;-65
2022/03/23 00:18:03;;;;;;;50.10;31.37;;;;;;;6.49;49.34;100846.92;1717717;83;20883;-64
2022/03/23 00:20:32;;;;;;;46.90;29.37;;;;;;;6.47;49.30;100846.17;1717825;83;20935;-66
2022/03/23 00:23:01;;;;;;;49.00;29.87;;;;;;;6.43;49.36;100848.68;1712750;83;20995;-66
2022/03/23 00:25:29;;;;;;;48.13;30.60;;;;;;;6.41;49.50;100840.02;1712486;83;21537;-65
2022/03/23 00:27:56;;;;;;;54.00;29.60;;;;;;;6.39;49.70;100839.30;1712264;83;21242;-65
2022/03/23 00:30:23;;;;;;;43.35;28.15;;;;;;;6.37;49.78;100839.86;1701258;83;20895;-63
2022/03/23 00:32:51;;;;;;;48.15;28.95;;;;;;;6.34;49.70;100833.47;1712274;83;20935;-65
2022/03/23 00:35:18;;;;;;;48.35;30.15;;;;;;;6.30;49.69;100833.34;1697239;83;21520;-65
2022/03/23 00:37:47;;;;;;;47.45;28.67;;;;;;;6.23;49.70;100826.81;1710486;83;21021;-66
2022/03/23 00:40:15;;;;;;;52.98;29.37;;;;;;;6.15;49.78;100826.86;1705845;83;21873;-63
2022/03/23 00:42:44;;;;;;;47.23;28.27;;;;;;;6.09;49.85;100821.19;1712356;83;21417;-67
2022/03/23 00:45:11;;;;;;;44.15;27.05;;;;;;;6.04;50.03;100819.36;1700415;83;20983;-65
2022/03/23 00:47:41;;;;;;;51.33;28.67;;;;;;;5.98;50.26;100808.74;1712248;83;21066;-65
2022/03/23 00:50:09;;;;;;;44.15;26.65;;;;;;;5.98;50.47;100810.06;1706537;83;20994;-64
2022/03/23 00:52:37;;;;;;;48.95;28.35;;;;;;;5.96;50.63;100808.48;1712227;83;21254;-64
2022/03/23 00:55:11;;;;;;;45.65;28.87;;;;;;;5.94;50.74;100799.83;1699946;83;20953;-65
2022/03/23 00:57:39;;;;;;;46.68;27.62;;;;;;;5.88;50.74;100803.75;1710253;83;20936;-66
2022/03/23 01:00:12;;;;;;;49.55;29.23;;;;;;;5.83;50.69;100804.52;1705177;83;21497;-65
2022/03/23 01:02:41;;;;;;;46.63;27.70;;;;;;;5.74;50.73;100801.66;1702620;83;21461;-65
2022/03/23 01:05:11;;;;;;;43.92;28.45;;;;;;;5.64;50.84;100804.11;1701105;83;20935;-66
2022/03/23 01:07:40;;;;;;;51.77;28.80;;;;;;;5.57;51.08;100798.91;1712221;83;20975;-65
2022/03/23 01:10:12;;;;;;;48.05;28.17;;;;;;;5.53;51.40;100796.94;1706841;83;21524;-65
2022/03/23 01:12:43;;;;;;;47.75;28.55;;;;;;;5.51;51.77;100795.36;1712270;83;20951;-65
2022/03/23 01:15:13;;;;;;;48.20;29.67;;;;;;;5.50;51.95;100793.19;1701833;83;20996;-66
2022/03/23 01:17:41;;;;;;;52.40;30.85;;;;;;;5.46;52.01;100792.19;1712358;83;21929;-66
2022/03/23 01:20:11;;;;;;;47.90;28.85;;;;;;;5.42;52.10;100794.19;1707609;83;21548;-67
2022/03/23 01:22:41;;;;;;;46.53;28.27;;;;;;;5.38;52.24;100789.23;1716974;83;20951;-65
2022/03/23 01:25:09;;;;;;;52.50;30.12;;;;;;;5.34;52.36;100792.58;1709535;83;21015;-66
2022/03/23 01:27:41;;;;;;;49.25;28.83;;;;;;;5.29;52.48;100791.20;1719887;83;20986;-64
2022/03/23 01:30:15;;;;;;;48.87;29.27;;;;;;;5.24;52.60;100786.72;1712696;83;21725;-65
2022/03/23 01:32:41;;;;;;;50.70;29.48;;;;;;;5.18;52.66;100785.34;1685220;85;20951;-66
2022/03/23 01:35:09;;;;;;;50.98;29.40;;;;;;;5.13;52.68;100778.69;1676098;85;21000;-65
2022/03/23 01:37:37;;;;;;;50.43;30.30;;;;;;;5.05;52.79;100781.00;1673222;85;21585;-65
2022/03/23 01:40:06;;;;;;;53.75;28.67;;;;;;;5.00;52.91;100778.18;1714890;83;20991;-65
2022/03/23 01:42:37;;;;;;;51.30;29.92;;;;;;;4.96;53.09;100780.67;1681557;83;20940;-66
2022/03/23 01:45:10;;;;;;;49.18;30.32;;;;;;;4.92;53.24;100776.56;1705925;83;21064;-65
2022/03/23 01:47:37;;;;;;;52.38;28.65;;;;;;;4.87;53.40;100776.03;1696933;83;21002;-65
2022/03/23 01:50:06;;;;;;;50.83;29.00;;;;;;;4.86;53.49;100778.75;1706029;83;20908;-66
2022/03/23 01:52:34;;;;;;;50.98;29.70;;;;;;;4.85;53.61;100779.69;1708869;83;20994;-65
2022/03/23 01:55:06;;;;;;;57.38;30.50;;;;;;;4.83;53.80;100775.00;1706227;83;21224;-65
2022/03/23 01:57:34;;;;;;;55.05;32.65;;;;;;;4.81;53.96;100777.75;1712670;83;20939;-66
2022/03/23 02:00:01;;;;;;;51.98;31.35;;;;;;;4.85;54.17;100775.73;1714894;83;21043;-65
2022/03/23 02:02:30;;;;;;;54.53;31.80;;;;;;;4.85;54.29;100775.73;1653008;85;21073;-66
2022/03/23 02:05:01;;;;;;;50.50;30.43;;;;;;;4.85;54.37;100774.41;1711891;83;21534;-64
2022/03/23 02:07:30;;;;;;;53.05;28.98;;;;;;;4.82;54.29;100772.83;1720067;83;21277;-65
2022/03/23 02:09:59;;;;;;;46.65;28.23;;;;;;;4.80;54.26;100766.81;1692087;83;20991;-65
2022/03/23 02:12:30;;;;;;;54.25;30.75;;;;;;;4.78;54.19;100765.23;1671532;85;21057;-66
2022/03/23 02:15:00;;;;;;;53.68;32.30;;;;;;;4.76;54.37;100764.03;1710918;83;21013;-65
2022/03/23 02:17:28;;;;;;;50.83;29.45;;;;;;;4.76;54.64;100761.86;1712021;83;20938;-65
2022/03/23 02:19:57;;;;;;;49.55;28.32;;;;;;;4.79;54.84;100766.93;1692223;83;22154;-64
2022/03/23 02:22:25;;;;;;;48.17;29.07;;;;;;;4.80;55.01;100758.91;1713302;83;21453;-66
2022/03/23 02:24:55;;;;;;;51.70;29.07;;;;;;;4.83;55.08;100765.30;1705109;83;21016;-67
2022/03/23 02:27:23;;;;;;;48.05;28.90;;;;;;;4.84;55.01;100759.09;1712551;83;21469;-66
2022/03/23 02:29:50;;;;;;;47.38;29.00;;;;;;;4.83;54.87;100752.11;1712386;83;21062;-65
2022/03/23 02:32:17;;;;;;;53.98;28.85;;;;;;;4.83;54.54;100749.95;1630272;83;21280;-66
2022/03/23 02:34:44;;;;;;;46.50;28.23;;;;;;;4.79;54.28;100753.28;1705196;83;20904;-65
2022/03/23 02:37:12;;;;;;;49.45;29.37;;;;;;;4.72;54.17;100755.94;1712475;83;20960;-65
2022/03/23 02:39:39;;;;;;;45.50;28.50;;;;;;;4.64;54.26;100746.38;1712436;83;20931;-66
2022/03/23 02:42:08;;;;;;;53.63;28.65;;;;;;;4.57;54.36;100750.84;1710276;83;20923;-65
2022/03/23 02:44:35;;;;;;;40.05;26.75;;;;;;;4.50;54.47;100746.47;1705719;83;21431;-63
2022/03/23 02:47:04;;;;;;;54.98;30.92;;;;;;;4.44;54.61;100749.95;1712543;83;20919;-65
2022/03/23 02:49:31;;;;;;;54.20;31.37;;;;;;;4.38;54.86;100747.25;1712779;83;20998;-65
2022/03/23 02:51:58;;;;;;;59.08;31.48;;;;;;;4.34;55.07;100749.73;1698917;83;21572;-67
2022/03/23 03:03:15;;;;;;;56.15;30.37;;;;;;;4.13;55.56;100748.48;1685543;83;20960;-66
2022/03/23 03:05:42;;;;;;;61.45;34.10;;;;;;;4.04;55.74;100756.98;1706296;83;20940;-64
2022/03/23 03:10:56;;;;;;;60.13;34.87;;;;;;;3.92;56.05;100749.39;1678266;85;21872;-67
2022/03/23 03:13:25;;;;;;;64.42;34.15;;;;;;;3.83;56.29;100747.81;1651821;86;22463;-64
2022/03/23 03:15:52;;;;;;;64.47;35.00;;;;;;;3.74;56.42;100746.60;1711551;83;21058;-66
2022/03/23 03:18:22;;;;;;;66.55;37.00;;;;;;;3.67;56.67;100749.25;1712534;83;20919;-65
2022/03/23 03:20:49;;;;;;;62.67;36.80;;;;;;;3.63;57.07;100748.59;1712403;83;20907;-65
2022/03/23 03:23:18;;;;;;;62.20;37.80;;;;;;;3.60;57.48;100751.41;1706515;83;20991;-65
2022/03/23 03:25:45;;;;;;;65.03;37.65;;;;;;;3.59;57.86;100748.42;1695943;83;20959;-65
2022/03/23 03:28:12;;;;;;;70.83;38.15;;;;;;;3.59;58.20;100748.42;1712498;83;21446;-65
2022/03/23 03:30:41;;;;;;;69.70;38.92;;;;;;;3.59;58.49;100751.05;1712393;83;21548;-65
2022/03/23 03:33:08;;;;;;;67.25;37.63;;;;;;;3.58;58.73;100741.45;1709556;83;20977;-66
2022/03/23 03:35:36;;;;;;;62.58;34.53;;;;;;;3.59;58.81;100735.27;1683184;83;21235;-65
2022/03/23 03:38:03;;;;;;;66.77;36.58;;;;;;;3.58;58.85;100741.45;1695731;83;21457;-66
2022/03/23 03:40:31;;;;;;;67.20;37.15;;;;;;;3.60;58.89;100742.20;1712304;83;20982;-66
2022/03/23 03:42:58;;;;;;;63.65;36.10;;;;;;;3.62;59.01;100741.63;1666801;85;21015;-66
2022/03/23 03:45:26;;;;;;;64.72;37.10;;;;;;;3.63;59.15;100736.75;1646022;86;20881;-66
2022/03/23 03:47:53;;;;;;;69.60;36.48;;;;;;;3.66;59.27;100737.88;1658781;86;22246;-66
2022/03/23 03:50:21;;;;;;;59.70;35.05;;;;;;;3.66;59.37;100736.56;1658774;86;21068;-64
2022/03/23 03:52:48;;;;;;;68.60;35.38;;;;;;;3.70;59.38;100731.46;1658857;86;21039;-65
2022/03/23 03:55:16;;;;;;;58.65;33.80;;;;;;;3.74;59.41;100734.30;1651454;86;21544;-65
2022/03/23 03:57:43;;;;;;;60.08;35.17;;;;;;;3.76;59.47;100731.55;1707343;84;20927;-65
2022/03/23 04:00:13;;;;;;;60.33;34.63;;;;;;;3.80;59.43;100732.21;1702116;84;21250;-66
2022/03/23 04:02:40;;;;;;;62.98;34.67;;;;;;;3.79;59.26;100726.56;1709681;84;20979;-66
2022/03/23 04:05:09;;;;;;;63.42;36.90;;;;;;;3.78;59.18;100723.08;1696581;84;21589;-66
2022/03/23 04:07:36;;;;;;;61.95;35.03;;;;;;;3.74;58.96;100723.77;1710169;84;21023;-65
2022/03/23 04:10:06;;;;;;;64.70;33.83;;;;;;;3.70;58.81;100724.06;1703448;84;20923;-66
2022/03/23 04:12:34;;;;;;;61.85;34.43;;;;;;;3.64;58.72;100729.24;1709851;84;21245;-65
2022/03/23 04:15:02;;;;;;;62.33;34.25;;;;;;;3.60;58.64;100726.41;1703874;84;20935;-66
2022/03/23 04:17:30;;;;;;;59.50;33.88;;;;;;;3.57;58.57;100721.33;1704400;84;20979;-65
2022/03/23 04:19:58;;;;;;;60.90;33.65;;;;;;;3.55;58.67;100729.80;1703831;84;20999;-65
2022/03/23 04:22:26;;;;;;;52.67;30.10;;;;;;;3.58;58.94;100724.81;1710325;83;20896;-65
2022/03/23 04:24:53;;;;;;;52.27;30.25;;;;;;;3.65;59.15;100728.28;1714968;83;21828;-66
2022/03/23 04:27:20;;;;;;;51.33;30.10;;;;;;;3.78;59.18;100727.52;1708343;83;20991;-66
2022/03/23 04:29:48;;;;;;;48.50;29.07;;;;;;;3.95;59.13;100728.13;1709657;83;21037;-65
2022/03/23 04:32:15;;;;;;;46.58;28.30;;;;;;;4.19;59.05;100723.07;1715017;83;20919;-65
2022/03/23 04:34:43;;;;;;;45.70;27.65;;;;;;;4.49;58.69;100718.41;1715235;83;20942;-65
2022/03/23 04:37:10;;;;;;;56.60;32.05;;;;;;;4.84;58.10;100717.37;1704254;83;21259;-64
2022/03/23 04:39:38;;;;;;;48.85;30.50;;;;;;;5.19;57.27;100717.59;1709746;83;21084;-65
2022/03/23 04:42:06;;;;;;;52.62;31.48;;;;;;;5.53;56.18;100714.26;1714905;83;20947;-65
2022/03/23 04:44:33;;;;;;;57.03;32.08;;;;;;;5.88;55.20;100717.91;1714893;83;20939;-66
2022/03/23 04:47:00;;;;;;;55.10;32.45;;;;;;;6.26;54.15;100715.10;1707522;83;21524;-66
2022/03/23 04:49:28;;;;;;;56.65;33.00;;;;;;;6.63;53.13;100714.53;1697951;83;21617;-65
2022/03/23 04:51:56;;;;;;;54.23;33.48;;;;;;;7.01;51.80;100705.87;1719720;83;20982;-66
2022/03/23 04:54:23;;;;;;;52.25;32.00;;;;;;;7.40;50.42;100715.97;1719949;83;20892;-65
2022/03/23 04:56:50;;;;;;;49.90;32.25;;;;;;;7.71;49.25;100709.11;1720112;83;20935;-65
2022/03/23 04:59:19;;;;;;;51.88;32.75;;;;;;;8.00;48.31;100713.41;1701034;83;21547;-67
2022/03/23 05:01:46;;;;;;;58.28;33.40;;;;;;;8.30;47.52;100710.92;1704009;83;21345;-64
2022/03/23 05:04:13;;;;;;;59.58;32.60;;;;;;;8.63;46.73;100708.11;1720017;83;20948;-64
2022/03/23 05:06:40;;;;;;;52.38;32.80;;;;;;;8.99;45.92;100709.98;1719982;83;21493;-68
2022/03/23 05:09:08;;;;;;;54.83;33.05;;;;;;;9.35;45.23;100707.30;1710236;83;21080;-64
2022/03/23 05:11:37;;;;;;;64.55;34.40;;;;;;;9.76;44.44;100709.83;1716133;83;21014;-67
2022/03/23 05:14:07;;;;;;;46.65;30.08;;;;;;;10.17;43.62;100704.83;1719997;83;20864;-67
2022/03/23 05:16:36;;;;;;;43.50;27.40;;;;;;;10.55;43.01;100699.55;1719923;83;21396;-66
2022/03/23 05:19:04;;;;;;;44.05;29.77;;;;;;;10.95;42.37;100696.19;1712806;83;20915;-66
2022/03/23 05:21:33;;;;;;;42.78;29.65;;;;;;;11.36;41.40;100694.13;1714887;83;20911;-66
2022/03/23 05:24:00;;;;;;;44.40;29.35;;;;;;;11.76;40.65;100702.66;1720063;83;20986;-64
2022/03/23 05:26:28;;;;;;;47.08;29.85;;;;;;;12.16;40.03;100697.78;1719906;83;22164;-66
2022/03/23 05:28:56;;;;;;;44.33;31.95;;;;;;;12.62;39.39;100695.89;1718110;83;20978;-66
2022/03/23 05:31:23;;;;;;;53.23;33.98;;;;;;;13.03;38.72;100693.87;1706957;83;20895;-65
2022/03/23 05:33:52;;;;;;;53.00;33.85;;;;;;;13.45;38.06;100691.31;1720104;83;20943;-68
2022/03/23 05:36:19;;;;;;;57.50;34.75;;;;;;;13.86;37.42;100690.48;1720018;83;20994;-67
2022/03/23 05:38:46;;;;;;;54.55;33.78;;;;;;;14.23;37.03;100688.73;1720079;83;21300;-65
2022/03/23 05:41:13;;;;;;;68.22;37.35;;;;;;;14.59;36.51;100686.12;1710567;83;20876;-67
2022/03/23 05:43:40;;;;;;;60.78;35.58;;;;;;;14.95;35.94;100683.92;1719964;83;20931;-67
2022/03/23 05:46:07;;;;;;;53.20;35.38;;;;;;;15.30;35.22;100683.51;1720030;83;21043;-65
2022/03/23 05:48:36;;;;;;;60.12;34.27;;;;;;;15.64;34.66;100685.97;1719853;83;21425;-66
2022/03/23 05:51:03;;;;;;;53.68;33.48;;;;;;;16.04;34.24;100681.73;1712150;83;21242;-65
2022/03/23 05:53:31;;;;;;;48.60;32.63;;;;;;;16.47;33.59;100678.11;1719970;83;21448;-67
2022/03/23 05:55:59;;;;;;;56.53;32.75;;;;;;;16.78;32.89;100678.05;1713296;83;21571;-66
2022/03/23 05:58:27;;;;;;;68.12;32.25;;;;;;;17.13;32.42;100679.55;1712918;83;20867;-67
2022/03/23 06:00:54;;;;;;;64.92;31.68;;;;;;;17.58;32.00;100680.42;1707809;83;20919;-67
2022/03/23 06:03:23;;;;;;;57.27;30.92;;;;;;;18.04;31.60;100677.80;1720082;83;20891;-66
2022/03/23 06:05:51;;;;;;;55.92;29.92;;;;;;;18.55;30.96;100666.46;1716459;83;21505;-67
2022/03/23 06:08:18;;;;;;;61.70;31.50;;;;;;;19.04;30.33;100671.84;1700448;83;20978;-67
2022/03/23 06:10:47;;;;;;;55.15;30.43;;;;;;;19.45;29.65;100663.86;1715330;83;20922;-67
2022/03/23 06:13:15;;;;;;;53.15;28.67;;;;;;;19.80;29.07;100668.17;1703289;83;20930;-66
2022/03/23 06:15:43;;;;;;;51.18;29.45;;;;;;;20.15;28.65;100666.23;1704691;83;21258;-67
2022/03/23 06:18:10;;;;;;;57.88;29.98;;;;;;;20.51;28.28;100670.80;1720065;83;20926;-67
2022/03/23 06:20:38;;;;;;;40.70;29.12;;;;;;;20.84;27.86;100668.94;1719995;83;21528;-67
2022/03/23 06:23:07;;;;;;;45.48;28.23;;;;;;;21.21;27.45;100661.24;1711213;83;21193;-66
2022/03/23 06:25:35;;;;;;;61.53;30.00;;;;;;;21.64;26.86;100668.33;1698196;83;20978;-66
2022/03/23 06:28:03;;;;;;;48.02;28.50;;;;;;;22.00;26.37;100664.56;1712447;83;21294;-66
2022/03/23 06:30:31;;;;;;;46.53;28.00;;;;;;;22.38;25.95;100670.80;1712527;83;20942;-66
2022/03/23 06:32:59;;;;;;;41.77;27.65;;;;;;;22.74;25.47;100657.94;1687592;83;20943;-66
2022/03/23 06:35:28;;;;;;;42.15;27.48;;;;;;;23.07;25.04;100657.13;1706037;83;21401;-65
2022/03/23 06:37:55;;;;;;;54.35;29.60;;;;;;;23.37;24.74;100655.92;1712378;83;20919;-67
2022/03/23 06:40:22;;;;;;;39.50;30.23;;;;;;;23.66;24.40;100652.98;1712313;83;21348;-66
2022/03/23 06:42:51;;;;;;;63.58;34.73;;;;;;;23.85;24.31;100649.20;1696063;83;20919;-66
2022/03/23 06:45:18;;;;;;;59.05;33.92;;;;;;;24.13;24.24;100644.56;1706380;83;21042;-66
2022/03/23 06:47:47;;;;;;;52.48;31.62;;;;;;;24.49;24.06;100641.72;1708884;83;20908;-66
2022/03/23 06:50:14;;;;;;;45.48;31.33;;;;;;;24.85;23.52;100638.85;1712570;83;20943;-65
2022/03/23 06:52:41;;;;;;;57.23;37.60;;;;;;;25.24;23.26;100636.51;1700971;83;21442;-67
2022/03/23 06:55:09;;;;;;;46.10;30.80;;;;;;;25.63;22.92;100635.73;1712381;83;21505;-65
2022/03/23 06:57:37;;;;;;;30.95;22.58;;;;;;;26.05;22.22;100640.40;1710121;83;20950;-67
2022/03/23 07:00:12;;;;;;;18.05;16.30;;;;;;;26.28;21.08;100632.17;1711655;83;20908;-66
2022/03/23 07:02:36;;;;;;;21.20;16.02;;;;;;;26.34;20.26;100631.16;1703597;83;21650;-67
2022/03/23 07:05:05;;;;;;;27.80;18.42;;;;;;;26.35;19.93;100640.48;1701241;83;21234;-65
2022/03/23 07:07:33;;;;;;;43.42;27.07;;;;;;;26.53;20.02;100638.06;1709236;83;20892;-66
2022/03/23 07:10:01;;;;;;;23.90;18.62;;;;;;;26.89;20.25;100629.41;1712401;83;20947;-66
2022/03/23 07:12:29;;;;;;;18.37;16.48;;;;;;;27.30;19.50;100632.20;1701254;83;20927;-66
2022/03/23 07:14:58;;;;;;;21.00;15.08;;;;;;;27.50;18.75;100626.22;1698946;83;21026;-68
2022/03/23 07:17:25;;;;;;;22.45;15.95;;;;;;;27.50;18.53;100628.42;1712515;83;21458;-65
2022/03/23 07:19:55;;;;;;;19.98;16.20;;;;;;;27.51;18.43;100628.69;1712351;83;21573;-66
2022/03/23 07:22:22;;;;;;;23.30;16.93;;;;;;;27.56;18.43;100630.13;1712519;83;20931;-66
2022/03/23 07:24:51;;;;;;;23.47;19.92;;;;;;;27.78;18.28;100623.83;1706288;83;21088;-67
2022/03/23 07:27:20;;;;;;;28.83;21.68;;;;;;;28.08;18.12;100620.92;1706244;83;20983;-68
2022/03/23 07:29:48;;;;;;;38.00;24.27;;;;;;;28.35;17.70;100625.56;1708526;83;21354;-66
2022/03/23 07:32:15;;;;;;;35.60;23.73;;;;;;;28.38;17.60;100623.68;1712331;83;20939;-66
2022/03/23 07:34:43;;;;;;;27.90;21.27;;;;;;;28.47;17.59;100620.77;1715350;83;20887;-66
2022/03/23 07:37:10;;;;;;;31.77;20.90;;;;;;;28.56;17.47;100620.56;1717868;83;21489;-67
2022/03/23 07:39:38;;;;;;;25.50;20.25;;;;;;;28.69;17.39;100618.78;1717828;83;21062;-66
2022/03/23 07:42:06;;;;;;;30.05;20.40;;;;;;;28.75;17.14;100616.37;1717730;83;21253;-67
2022/03/23 07:44:37;;;;;;;24.45;18.87;;;;;;;28.53;17.24;100615.06;1711071;83;20895;-67
2022/03/23 07:47:10;;;;;;;34.70;20.80;;;;;;;28.50;17.35;100615.58;1717807;83;20913;-66
2022/03/23 07:49:36;;;;;;;28.95;21.37;;;;;;;28.59;17.38;100617.30;1707368;83;21603;-67
2022/03/23 07:52:04;;;;;;;33.18;23.35;;;;;;;28.74;17.41;100605.97;1710190;83;20895;-65
2022/03/23 07:54:33;;;;;;;28.75;22.45;;;;;;;28.98;17.38;100598.19;1717765;83;20923;-66
2022/03/23 07:57:01;;;;;;;31.62;22.22;;;;;;;29.12;17.10;100603.47;1709806;83;20994;-67
2022/03/23 07:59:28;;;;;;;34.05;20.30;;;;;;;29.13;17.12;100606.50;1663741;85;21041;-66
2022/03/23 08:01:55;;;;;;;23.70;19.55;;;;;;;29.24;17.04;100600.03;1717478;83;21505;-67
2022/03/23 08:04:22;;;;;;;26.70;19.12;;;;;;;29.48;16.91;100599.59;1718098;83;20978;-68
2022/03/23 08:06:50;;;;;;;19.50;16.62;;;;;;;29.59;16.67;100594.44;1711104;83;21924;-66
2022/03/23 08:09:17;;;;;;;20.82;18.62;;;;;;;29.70;16.63;100596.92;1717664;83;20892;-67
2022/03/23 08:11:44;;;;;;;28.25;16.45;;;;;;;29.94;16.39;100599.51;1717789;83;20903;-68
2022/03/23 08:14:11;;;;;;;21.95;16.05;;;;;;;30.11;16.16;100587.48;1688815;83;21077;-66
2022/03/23 08:16:39;;;;;;;18.15;13.62;;;;;;;30.06;16.17;100585.52;1686759;84;21045;-66
2022/03/23 08:19:07;;;;;;;20.72;12.23;;;;;;;30.15;16.18;100582.53;1674061;84;22056;-67
2022/03/23 08:21:35;;;;;;;9.93;8.93;;;;;;;30.45;16.14;100580.41;1700301;83;21551;-69
2022/03/23 08:24:04;;;;;;;10.38;6.87;;;;;;;30.78;15.75;100573.51;1701024;83;21513;-66
2022/03/23 08:26:31;;;;;;;8.80;6.83;;;;;;;30.97;15.47;100571.32;1711339;83;20978;-67
2022/03/23 08:28:59;;;;;;;7.35;5.58;;;;;;;31.04;15.35;100567.73;1703245;83;21578;-67
2022/03/23 08:31:26;;;;;;;6.70;4.78;;;;;;;31.16;15.19;100564.65;1711834;83;21255;-67
2022/03/23 08:33:54;;;;;;;9.58;5.08;;;;;;;31.12;14.95;100564.95;1707399;83;20931;-67
2022/03/23 08:36:21;;;;;;;10.05;5.53;;;;;;;31.12;14.85;100563.58;1713582;83;20950;-67
2022/03/23 08:38:48;;;;;;;9.33;5.87;;;;;;;31.29;14.55;100560.51;1711690;83;21524;-68
2022/03/23 08:41:16;;;;;;;7.55;5.97;;;;;;;31.34;14.56;100557.73;1715886;83;20951;-67
2022/03/23 08:43:44;;;;;;;6.72;5.55;;;;;;;31.38;14.36;100551.94;1708634;83;21701;-69
2022/03/23 08:46:14;;;;;;;13.28;5.62;;;;;;;31.50;14.35;100556.58;1715416;83;21002;-67
2022/03/23 08:48:42;;;;;;;10.58;6.03;;;;;;;31.65;14.08;100553.20;1716873;83;21502;-68
2022/03/23 08:51:09;;;;;;;9.83;6.12;;;;;;;31.71;13.94;100552.62;1715405;83;21740;-67
2022/03/23 08:53:42;;;;;;;9.83;6.08;;;;;;;31.75;14.02;100549.05;1708859;83;20958;-66
2022/03/23 08:56:08;;;;;;;11.83;7.03;;;;;;;31.95;14.07;100541.75;1706838;83;21190;-66
2022/03/23 08:58:37;;;;;;;14.13;6.53;;;;;;;32.18;13.95;100539.68;1715767;83;21642;-68
2022/03/23 09:01:05;;;;;;;7.37;5.33;;;;;;;32.37;13.67;100537.88;1715197;83;20887;-66
2022/03/23 09:03:33;;;;;;;7.92;4.92;;;;;;;32.50;13.42;100537.21;1712446;83;20872;-67
2022/03/23 09:06:01;;;;;;;7.15;5.12;;;;;;;32.61;13.13;100529.16;1712628;83;21497;-65
2022/03/23 09:08:29;;;;;;;7.08;4.80;;;;;;;32.74;12.88;100532.61;1704882;83;21241;-66
2022/03/23 09:10:56;;;;;;;6.00;4.78;;;;;;;32.83;12.78;100526.71;1705562;83;21433;-68
2022/03/23 09:13:25;;;;;;;7.47;5.15;;;;;;;32.96;12.59;100523.27;1716656;83;21407;-66
2022/03/23 09:15:52;;;;;;;6.85;5.53;;;;;;;33.11;12.56;100520.11;1689563;83;21488;-68
2022/03/23 09:18:19;;;;;;;9.30;5.95;;;;;;;33.29;12.41;100523.47;1716139;83;20990;-67
2022/03/23 09:20:48;;;;;;;8.28;4.15;;;;;;;33.33;12.09;100523.12;1714411;83;20927;-66
2022/03/23 09:23:17;;;;;;;7.00;4.17;;;;;;;33.36;11.98;100519.78;1716293;83;20994;-68
2022/03/23 09:25:44;;;;;;;8.25;4.40;;;;;;;33.49;11.91;100517.67;1694496;82;20868;-68
2022/03/23 09:28:12;;;;;;;4.22;3.20;;;;;;;33.52;11.68;100510.19;1692550;83;21518;-66
2022/03/23 09:30:39;;;;;;;3.85;3.55;;;;;;;33.42;11.49;100508.95;1698818;83;21056;-65
2022/03/23 09:33:07;;;;;;;4.12;3.58;;;;;;;33.39;11.42;100499.89;1690671;83;21230;-68
2022/03/23 09:35:34;;;;;;;4.53;4.12;;;;;;;33.34;11.49;100499.96;1705367;83;21465;-67
2022/03/23 09:38:04;;;;;;;6.12;4.22;;;;;;;33.52;11.53;100497.78;1705220;83;20914;-67
2022/03/23 09:40:31;;;;;;;8.68;4.92;;;;;;;33.79;11.37;100487.48;1711163;83;20999;-68
2022/03/23 09:43:00;;;;;;;5.95;3.25;;;;;;;33.62;11.17;100494.08;1710516;83;21038;-64
2022/03/23 09:48:05;;;;;;;7.13;3.17;;;;;;;33.15;11.39;100482.55;1710638;83;21450;-65
2022/03/23 09:50:33;;;;;;;3.80;3.40;;;;;;;33.25;11.26;100476.35;1711316;83;21504;-66
2022/03/23 09:53:02;;;;;;;7.33;3.70;;;;;;;33.33;11.37;100479.83;1705718;83;21049;-64
2022/03/23 09:55:30;;;;;;;7.47;4.20;;;;;;;33.42;11.33;100473.10;1710836;83;21450;-66
2022/03/23 09:57:59;;;;;;;5.15;4.37;;;;;;;33.32;11.51;100473.25;1709883;83;21232;-62
2022/03/23 10:00:31;;;;;;;4.47;4.08;;;;;;;33.26;11.64;100466.98;1711272;83;20896;-61
2022/03/23 10:03:13;;;;;;;7.72;4.60;;;;;;;33.27;12.75;100468.59;1703600;83;20884;-65
2022/03/23 10:06:04;;;;;;;12.23;4.45;;;;;;;33.23;12.88;100463.98;1701327;83;20950;-62
2022/03/23 10:09:14;;;;;;;9.75;4.67;;;;;;;33.29;12.85;100457.29;1707984;83;21006;-61
2022/03/23 10:12:39;;;;;;;6.08;4.60;;;;;;;33.14;12.46;100450.02;1666981;85;20993;-63
2022/03/23 10:15:57;;;;;;;7.87;4.90;;;;;;;32.35;13.08;100449.25;1639067;86;20935;-67
2022/03/23 10:18:55;;;;;;;6.00;5.40;;;;;;;31.10;13.36;100440.77;1633969;86;21485;-69
2022/03/23 10:21:35;;;;;;;6.10;5.20;;;;;;;30.56;13.46;100431.84;1682090;84;20916;-67
2022/03/23 10:24:08;;;;;;;7.70;4.83;;;;;;;30.12;13.72;100436.28;1708240;84;20991;-64
2022/03/23 10:26:41;;;;;;;5.67;5.08;;;;;;;29.73;14.06;100435.16;1685986;84;21278;-66
2022/03/23 10:29:24;;;;;;;5.37;4.03;;;;;;;29.32;14.22;100431.53;1696764;84;20908;-67
2022/03/23 10:32:08;;;;;;;5.08;4.08;;;;;;;28.97;14.33;100430.83;1686661;84;21006;-68
2022/03/23 10:34:51;;;;;;;5.10;4.50;;;;;;;28.63;14.47;100428.20;1686162;84;21545;-68
2022/03/23 10:37:28;;;;;;;5.42;4.08;;;;;;;28.25;14.72;100427.13;1675308;84;21034;-67
2022/03/23 10:40:03;;;;;;;5.55;5.05;;;;;;;27.73;14.95;100422.31;1690898;83;21280;-69
2022/03/23 10:42:33;;;;;;;5.00;4.12;;;;;;;27.28;15.37;100421.28;1695448;84;21461;-68
2022/03/23 10:45:16;;;;;;;5.12;4.60;;;;;;;27.03;15.46;100412.81;1705130;84;20935;-67
2022/03/23 10:47:44;;;;;;;4.80;4.30;;;;;;;26.81;15.69;100408.72;1696148;84;20983;-67
2022/03/23 10:50:17;;;;;;;4.87;4.08;;;;;;;26.52;15.83;100408.57;1696256;84;21002;-69
2022/03/23 10:53:02;;;;;;;4.47;3.92;;;;;;;26.24;15.97;100397.81;1688959;84;21238;-65
2022/03/23 10:55:32;;;;;;;7.53;4.53;;;;;;;25.92;16.23;100402.17;1680625;84;21007;-69
2022/03/23 10:58:14;;;;;;;6.50;3.65;;;;;;;25.65;16.51;100400.66;1685365;84;20926;-65
2022/03/23 11:00:42;;;;;;;7.45;4.15;;;;;;;25.55;16.60;100399.92;1700537;84;21034;-68
2022/03/23 11:03:10;;;;;;;6.42;4.33;;;;;;;25.39;16.67;100389.82;1707893;84;21098;-67
2022/03/23 11:05:44;;;;;;;5.28;4.78;;;;;;;25.20;16.86;100391.09;1697118;84;21398;-66
2022/03/23 11:08:23;;;;;;;7.45;4.53;;;;;;;25.04;16.95;100379.61;1697767;84;21077;-68
2022/03/23 11:16:48;;;;;;;7.10;5.05;;;;;;;24.69;16.71;100368.00;1701189;84;20860;-65
2022/03/23 11:19:24;;;;;;;5.30;4.25;;;;;;;24.48;16.94;100363.47;1693678;84;21250;-67
2022/03/23 11:22:12;;;;;;;6.47;4.80;;;;;;;24.40;17.21;100362.48;1706121;84;20991;-66
2022/03/23 11:24:43;;;;;;;6.58;4.03;;;;;;;24.42;17.45;100358.18;1676076;84;20991;-65
2022/03/23 11:27:18;;;;;;;5.45;4.20;;;;;;;24.44;17.21;100351.95;1697937;83;21025;-65
2022/03/23 11:29:48;;;;;;;11.57;4.33;;;;;;;24.42;17.21;100344.58;1708246;83;20867;-66
2022/03/23 11:32:24;;;;;;;9.05;4.45;;;;;;;24.35;17.34;100339.25;1702298;83;21270;-67
2022/03/23 11:34:50;;;;;;;6.47;4.77;;;;;;;24.31;17.58;100334.55;1713671;83;20979;-64
2022/03/23 11:37:23;;;;;;;10.58;5.15;;;;;;;24.21;17.81;100331.08;1698812;83;21414;-66
2022/03/23 11:39:48;;;;;;;6.40;4.60;;;;;;;24.13;18.00;100324.65;1689078;83;20892;-68
2022/03/23 11:42:17;;;;;;;15.75;4.90;;;;;;;24.14;18.13;100323.59;1718082;83;20990;-65
2022/03/23 11:44:46;;;;;;;8.63;4.50;;;;;;;24.17;18.21;100311.42;1697611;83;21359;-65
2022/03/23 11:47:41;;;;;;;6.62;4.42;;;;;;;24.19;18.11;100310.11;1714364;83;20996;-67